Time,TemperatureF,DewpointF,PressureIn,WindDirection,WindDirectionDegrees,WindSpeedMPH,WindSpeedGustMPH,Humidity,HourlyPrecipIn,Conditions,Clouds,dailyrainin,SoftwareType,DateUTC
2013-06-28 00:02:00,73.0,72.0,29.85,SSW,207,0.0,0.0,96,0.00,,,0.02,,2013-06-28 04:02:00,
2013-06-28 00:12:00,73.0,72.0,29.85,SSW,207,0.0,0.0,96,0.00,,,0.02,,2013-06-28 04:12:00,
2013-06-28 00:22:00,73.0,72.0,29.85,SSW,207,0.0,0.0,96,0.00,,,0.02,,2013-06-28 04:22:00,
2013-06-28 00:33:00,73.0,72.0,29.84,SSW,207,0.0,2.0,96,0.00,,,0.02,,2013-06-28 04:33:00,
2013-06-28 00:43:00,72.0,71.0,29.84,SSW,207,0.0,2.0,96,0.00,,,0.02,,2013-06-28 04:43:00,
2013-06-28 00:53:00,72.0,71.0,29.84,SSW,207,0.0,0.0,96,0.00,,,0.02,,2013-06-28 04:53:00,
2013-06-28 01:01:00,72.0,71.0,29.84,SSW,207,0.0,1.0,96,0.00,,,0.02,,2013-06-28 05:01:00,
2013-06-28 01:22:00,72.0,71.0,29.84,SSW,207,0.0,1.0,96,0.00,,,0.02,,2013-06-28 05:22:00,
2013-06-28 01:43:00,72.0,71.0,29.83,SSW,207,0.0,0.0,96,0.00,,,0.02,,2013-06-28 05:43:00,
2013-06-28 01:53:00,71.0,70.0,29.83,SSW,207,0.0,0.0,96,0.00,,,0.02,,2013-06-28 05:53:00,
2013-06-28 02:02:00,71.0,70.0,29.83,SSW,207,0.0,1.0,96,0.00,,,0.02,,2013-06-28 06:02:00,
2013-06-28 02:12:00,72.0,70.0,29.83,SSW,207,0.0,1.0,94,0.00,,,0.02,,2013-06-28 06:12:00,
2013-06-28 02:22:00,72.0,70.0,29.83,SSW,207,0.0,1.0,94,0.00,,,0.02,,2013-06-28 06:22:00,
2013-06-28 02:42:00,72.0,70.0,29.82,SSW,207,0.0,0.0,93,0.00,,,0.02,,2013-06-28 06:42:00,
2013-06-28 03:01:00,71.0,69.0,29.82,SSW,207,0.0,0.0,93,0.00,,,0.02,,2013-06-28 07:01:00,
2013-06-28 03:11:00,71.0,69.0,29.81,SSW,207,0.0,0.0,93,0.00,,,0.02,,2013-06-28 07:11:00,
2013-06-28 03:22:00,71.0,69.0,29.81,SSW,207,0.0,0.0,93,0.00,,,0.02,,2013-06-28 07:22:00,
2013-06-28 03:33:00,70.0,68.0,29.82,SSW,207,0.0,1.0,94,0.00,,,0.02,,2013-06-28 07:33:00,
2013-06-28 03:43:00,70.0,68.0,29.82,SSW,207,0.0,1.0,95,0.00,,,0.02,,2013-06-28 07:43:00,
2013-06-28 03:52:00,71.0,69.0,29.81,SSW,207,0.0,1.0,93,0.00,,,0.02,,2013-06-28 07:52:00,
2013-06-28 04:02:00,72.0,69.0,29.81,SSW,207,0.0,0.0,90,0.00,,,0.02,,2013-06-28 08:02:00,
2013-06-28 04:11:00,73.0,69.0,29.81,SSW,207,0.0,0.0,86,0.00,,,0.02,,2013-06-28 08:11:00,
2013-06-28 04:22:00,73.0,69.0,29.81,SSW,207,0.0,0.0,86,0.00,,,0.02,,2013-06-28 08:22:00,
2013-06-28 04:33:00,72.0,68.0,29.81,SSW,207,0.0,0.0,87,0.00,,,0.02,,2013-06-28 08:33:00,
2013-06-28 04:43:00,71.0,68.0,29.82,SSW,207,0.0,0.0,89,0.00,,,0.02,,2013-06-28 08:43:00,
2013-06-28 04:52:00,70.0,67.0,29.81,SSW,207,0.0,1.0,91,0.00,,,0.02,,2013-06-28 08:52:00,
2013-06-28 05:02:00,69.0,67.0,29.81,SSW,207,0.0,1.0,93,0.00,,,0.02,,2013-06-28 09:02:00,
2013-06-28 05:11:00,69.0,67.0,29.81,SSW,207,0.0,1.0,93,0.00,,,0.02,,2013-06-28 09:11:00,
2013-06-28 05:22:00,69.0,67.0,29.81,SSW,207,0.0,1.0,93,0.00,,,0.02,,2013-06-28 09:22:00,
2013-06-28 05:33:00,68.0,66.0,29.81,SSW,207,0.0,1.0,94,0.00,,,0.02,,2013-06-28 09:33:00,
2013-06-28 05:42:00,67.0,66.0,29.80,SSW,207,0.0,1.0,95,0.00,,,0.02,,2013-06-28 09:42:00,
2013-06-28 05:52:00,67.0,66.0,29.80,SSW,207,0.0,0.0,95,0.00,,,0.02,,2013-06-28 09:52:00,
2013-06-28 06:22:00,67.0,66.0,29.80,SSW,207,0.0,1.0,96,0.00,,,0.02,,2013-06-28 10:22:00,
2013-06-28 06:42:00,66.0,65.0,29.80,SSW,207,1.0,2.0,96,0.00,,,0.02,,2013-06-28 10:42:00,
2013-06-28 06:52:00,66.0,65.0,29.80,SSW,207,0.0,1.0,96,0.00,,,0.02,,2013-06-28 10:52:00,
2013-06-28 07:22:00,66.0,65.0,29.80,SSW,207,0.0,0.0,97,0.00,,,0.02,,2013-06-28 11:22:00,
2013-06-28 07:43:00,67.0,66.0,29.79,SSW,207,0.0,1.0,97,0.00,,,0.02,,2013-06-28 11:43:00,
2013-06-28 07:53:00,67.0,66.0,29.79,SSW,207,0.0,2.0,97,0.00,,,0.02,,2013-06-28 11:53:00,
2013-06-28 08:12:00,69.0,68.0,29.80,SSW,207,0.0,2.0,98,0.00,,,0.02,,2013-06-28 12:12:00,
2013-06-28 08:22:00,69.0,68.0,29.80,SSW,207,0.0,2.0,98,0.00,,,0.02,,2013-06-28 12:22:00,
2013-06-28 08:34:00,71.0,70.0,29.80,SSW,207,1.0,2.0,98,0.00,,,0.02,,2013-06-28 12:34:00,
2013-06-28 08:43:00,72.0,71.0,29.80,SSW,207,1.0,3.0,97,0.00,,,0.02,,2013-06-28 12:43:00,
2013-06-28 09:23:00,78.0,73.0,29.80,SW,220,0.0,2.0,86,0.00,,,0.02,,2013-06-28 13:23:00,
2013-06-28 09:53:00,80.0,72.0,29.80,SSW,205,2.0,5.0,78,0.00,,,0.02,,2013-06-28 13:53:00,
2013-06-28 10:02:00,80.0,73.0,29.80,SW,222,1.0,4.0,80,0.00,,,0.02,,2013-06-28 14:02:00,
2013-06-28 10:12:00,79.0,73.0,29.80,SSW,213,1.0,5.0,83,0.00,,,0.02,,2013-06-28 14:12:00,
2013-06-28 10:33:00,80.0,74.0,29.79,WSW,254,1.0,6.0,81,0.00,,,0.02,,2013-06-28 14:33:00,
2013-06-28 10:44:00,80.0,73.0,29.78,SSW,194,3.0,5.0,80,0.00,,,0.02,,2013-06-28 14:44:00,
2013-06-28 10:53:00,81.0,72.0,29.78,SSW,201,3.0,6.0,75,0.00,,,0.02,,2013-06-28 14:53:00,
2013-06-28 11:02:00,83.0,73.0,29.78,SSE,156,0.0,5.0,73,0.00,,,0.02,,2013-06-28 15:02:00,
2013-06-28 11:11:00,84.0,73.0,29.78,NW,309,0.0,2.0,70,0.00,,,0.02,,2013-06-28 15:11:00,
2013-06-28 11:24:00,84.0,73.0,29.78,NW,309,0.0,2.0,70,0.00,,,0.02,,2013-06-28 15:24:00,
2013-06-28 11:34:00,86.0,75.0,29.78,SW,221,1.0,7.0,70,0.00,,,0.02,,2013-06-28 15:34:00,
2013-06-28 11:43:00,86.0,72.0,29.78,North,355,1.0,3.0,64,0.00,,,0.02,,2013-06-28 15:43:00,
2013-06-28 11:52:00,86.0,74.0,29.78,South,178,1.0,7.0,67,0.00,,,0.02,,2013-06-28 15:52:00,
2013-06-28 12:02:00,87.0,74.0,29.78,SSW,208,1.0,6.0,66,0.00,,,0.02,,2013-06-28 16:02:00,
2013-06-28 12:11:00,87.0,74.0,29.78,SSW,211,2.0,7.0,66,0.00,,,0.02,,2013-06-28 16:11:00,
2013-06-28 12:25:00,87.0,74.0,29.78,SSW,211,2.0,7.0,66,0.00,,,0.02,,2013-06-28 16:25:00,
2013-06-28 12:33:00,86.0,73.0,29.78,West,265,5.0,8.0,66,0.00,,,0.02,,2013-06-28 16:33:00,
2013-06-28 12:53:00,87.0,72.0,29.78,NW,313,1.0,4.0,62,0.00,,,0.02,,2013-06-28 16:53:00,
2013-06-28 13:22:00,89.0,73.0,29.77,WSW,237,0.0,5.0,60,0.00,,,0.02,,2013-06-28 17:22:00,
2013-06-28 13:44:00,89.0,73.0,29.77,SW,215,1.0,4.0,60,0.00,,,0.02,,2013-06-28 17:44:00,
2013-06-28 13:52:00,89.0,73.0,29.77,SSE,159,3.0,7.0,60,0.00,,,0.02,,2013-06-28 17:52:00,
2013-06-28 14:02:00,89.0,73.0,29.77,SSE,159,3.0,7.0,60,0.00,,,0.02,,2013-06-28 18:02:00,
2013-06-28 14:52:00,90.0,72.0,29.74,SSW,210,1.0,7.0,56,0.00,,,0.02,,2013-06-28 18:52:00,
2013-06-28 15:01:00,91.0,71.0,29.74,WNW,284,1.0,3.0,52,0.00,,,0.02,,2013-06-28 19:01:00,
2013-06-28 15:11:00,91.0,71.0,29.73,North,5,1.0,9.0,53,0.00,,,0.02,,2013-06-28 19:11:00,
2013-06-28 15:22:00,91.0,71.0,29.73,North,5,1.0,9.0,53,0.00,,,0.02,,2013-06-28 19:22:00,
2013-06-28 15:33:00,90.0,68.0,29.72,North,360,0.0,5.0,49,0.00,,,0.02,,2013-06-28 19:33:00,
2013-06-28 15:43:00,91.0,68.0,29.72,NNW,344,0.0,4.0,47,0.00,,,0.02,,2013-06-28 19:43:00,
2013-06-28 15:53:00,91.0,69.0,29.71,NNW,338,1.0,5.0,48,0.00,,,0.02,,2013-06-28 19:53:00,
2013-06-28 16:11:00,90.0,69.0,29.71,WNW,299,3.0,6.0,51,0.00,,,0.02,,2013-06-28 20:11:00,
2013-06-28 16:22:00,90.0,69.0,29.71,WNW,299,3.0,6.0,51,0.00,,,0.02,,2013-06-28 20:22:00,
2013-06-28 16:33:00,89.0,69.0,29.71,NNE,14,5.0,11.0,52,0.00,,,0.02,,2013-06-28 20:33:00,
2013-06-28 16:43:00,88.0,69.0,29.71,North,5,3.0,9.0,54,0.00,,,0.02,,2013-06-28 20:43:00,
2013-06-28 16:52:00,88.0,69.0,29.70,NNW,347,4.0,9.0,53,0.00,,,0.02,,2013-06-28 20:52:00,
2013-06-28 17:11:00,87.0,70.0,29.70,NE,36,3.0,9.0,58,0.00,,,0.02,,2013-06-28 21:11:00,
2013-06-28 17:23:00,87.0,70.0,29.70,NE,36,3.0,9.0,58,0.00,,,0.02,,2013-06-28 21:23:00,
2013-06-28 17:34:00,86.0,72.0,29.70,NNE,21,0.0,4.0,64,0.00,,,0.02,,2013-06-28 21:34:00,
2013-06-28 17:43:00,86.0,73.0,29.70,NNE,25,1.0,4.0,65,0.00,,,0.02,,2013-06-28 21:43:00,
2013-06-28 17:53:00,86.0,70.0,29.69,North,355,2.0,8.0,60,0.00,,,0.02,,2013-06-28 21:53:00,
2013-06-28 18:11:00,85.0,70.0,29.69,North,5,1.0,4.0,62,0.00,,,0.02,,2013-06-28 22:11:00,
2013-06-28 18:22:00,85.0,70.0,29.69,North,5,1.0,4.0,62,0.00,,,0.02,,2013-06-28 22:22:00,
2013-06-28 18:34:00,85.0,70.0,29.69,NNW,339,0.0,2.0,62,0.00,,,0.00,,2013-06-28 22:34:00,
2013-06-28 18:43:00,85.0,71.0,29.68,NNE,14,1.0,5.0,64,0.00,,,0.00,,2013-06-28 22:43:00,
2013-06-28 18:52:00,84.0,71.0,29.68,NNE,26,0.0,3.0,65,0.00,,,0.00,,2013-06-28 22:52:00,
2013-06-28 19:02:00,84.0,71.0,29.68,NNE,26,0.0,3.0,65,0.00,,,0.00,,2013-06-28 23:02:00,
2013-06-28 19:11:00,83.0,72.0,29.68,NNE,26,0.0,3.0,69,0.00,,,0.00,,2013-06-28 23:11:00,
2013-06-28 19:23:00,83.0,72.0,29.68,NNE,26,0.0,3.0,69,0.00,,,0.00,,2013-06-28 23:23:00,
2013-06-28 19:34:00,82.0,71.0,29.67,NNE,19,0.0,2.0,70,0.00,,,0.00,,2013-06-28 23:34:00,
2013-06-28 19:43:00,82.0,72.0,29.67,North,9,0.0,1.0,72,0.00,,,0.00,,2013-06-28 23:43:00,
2013-06-28 19:53:00,81.0,71.0,29.67,North,9,0.0,1.0,71,0.00,,,0.00,,2013-06-28 23:53:00,
2013-06-28 20:02:00,81.0,71.0,29.68,North,9,0.0,1.0,72,0.00,,,0.00,,2013-06-29 00:02:00,
2013-06-28 20:11:00,80.0,71.0,29.69,North,9,0.0,1.0,75,0.00,,,0.00,,2013-06-29 00:11:00,
2013-06-28 20:23:00,80.0,71.0,29.69,North,9,0.0,1.0,75,0.00,,,0.00,,2013-06-29 00:23:00,
2013-06-28 20:33:00,79.0,73.0,29.69,SSW,193,2.0,4.0,81,0.00,,,0.00,,2013-06-29 00:33:00,
2013-06-28 21:01:00,79.0,72.0,29.68,SSW,193,0.0,2.0,80,0.00,,,0.00,,2013-06-29 01:01:00,
2013-06-28 21:11:00,79.0,73.0,29.69,SSW,193,2.0,4.0,81,0.00,,,0.00,,2013-06-29 01:11:00,
2013-06-28 21:22:00,79.0,72.0,29.68,SSW,193,0.0,2.0,80,0.00,,,0.00,,2013-06-29 01:22:00,
2013-06-28 21:32:00,79.0,72.0,29.68,SSW,193,0.0,2.0,80,0.00,,,0.00,,2013-06-29 01:32:00,
2013-06-28 21:42:00,79.0,72.0,29.68,SSW,193,0.0,2.0,80,0.00,,,0.00,,2013-06-29 01:42:00,
2013-06-28 21:52:00,79.0,72.0,29.68,SSW,193,0.0,2.0,80,0.00,,,0.00,,2013-06-29 01:52:00,
2013-06-28 22:20:00,72.0,71.0,29.72,NNE,28,1.0,2.0,96,0.01,,,0.21,,2013-06-29 02:20:00,
2013-06-28 22:31:00,72.0,71.0,29.72,NNE,28,1.0,2.0,96,0.01,,,0.21,,2013-06-29 02:31:00,
2013-06-28 22:41:00,72.0,71.0,29.72,NNE,28,1.0,2.0,96,0.01,,,0.21,,2013-06-29 02:41:00,
2013-06-28 22:51:00,72.0,71.0,29.72,NNE,28,1.0,2.0,96,0.01,,,0.21,,2013-06-29 02:51:00,
2013-06-28 23:01:00,72.0,71.0,29.72,NNE,28,1.0,2.0,96,0.01,,,0.21,,2013-06-29 03:01:00,
2013-06-28 23:11:00,72.0,71.0,29.72,NNE,28,1.0,2.0,96,0.01,,,0.21,,2013-06-29 03:11:00,